createdAt,value
2024-04-19T00:00:51.442Z,5.61
2024-04-19T00:03:18.428Z,5.60
2024-04-19T00:05:46.242Z,5.59
2024-04-19T00:08:32.174Z,5.61
2024-04-19T00:11:00.529Z,5.59
2024-04-19T00:13:30.423Z,5.60
2024-04-19T00:16:00.423Z,5.58
2024-04-19T00:18:28.196Z,5.63
2024-04-19T00:20:56.418Z,5.62
2024-04-19T00:23:23.894Z,5.59
2024-04-19T00:25:50.829Z,5.63
2024-04-19T00:28:17.862Z,5.68
2024-04-19T00:30:47.447Z,5.71
2024-04-19T00:33:14.966Z,5.74
2024-04-19T00:35:41.975Z,5.72
2024-04-19T00:38:09.494Z,5.73
2024-04-19T00:40:36.453Z,5.71
2024-04-19T00:43:05.417Z,5.71
2024-04-19T00:45:37.232Z,5.70
2024-04-19T00:48:12.963Z,5.66
2024-04-19T00:50:55.273Z,5.64
2024-04-19T00:53:28.043Z,5.64
2024-04-19T00:55:57.482Z,5.67
2024-04-19T00:58:25.697Z,5.67
2024-04-19T01:00:53.145Z,5.61
2024-04-19T01:03:22.999Z,5.62
2024-04-19T01:05:49.957Z,5.60
2024-04-19T01:08:26.715Z,5.49
2024-04-19T01:10:54.243Z,5.44
2024-04-19T01:13:21.629Z,5.43
2024-04-19T01:15:49.502Z,5.41
2024-04-19T01:18:17.054Z,5.43
2024-04-19T01:20:47.110Z,5.44
2024-04-19T01:23:14.967Z,5.45
2024-04-19T01:25:44.147Z,5.47
2024-04-19T01:28:14.403Z,5.45
2024-04-19T01:30:46.064Z,5.42
2024-04-19T01:33:13.622Z,5.43
2024-04-19T01:35:40.824Z,5.44
2024-04-19T01:38:07.648Z,5.45
2024-04-19T01:40:34.689Z,5.45
2024-04-19T01:43:01.619Z,5.47
2024-04-19T01:45:31.485Z,5.49
2024-04-19T01:48:00.900Z,5.51
2024-04-19T01:50:27.960Z,5.50
2024-04-19T01:52:55.177Z,5.52
2024-04-19T01:55:21.937Z,5.50
2024-04-19T01:57:48.735Z,5.46
2024-04-19T02:00:15.942Z,5.43
2024-04-19T02:02:45.431Z,5.42
2024-04-19T02:05:12.986Z,5.39
2024-04-19T02:07:39.839Z,5.41
2024-04-19T02:10:08.692Z,5.42
2024-04-19T02:12:35.498Z,5.42
2024-04-19T02:15:02.355Z,5.47
2024-04-19T02:17:29.446Z,5.49
2024-04-19T02:19:58.986Z,5.51
2024-04-19T02:22:25.818Z,5.51
2024-04-19T02:24:52.691Z,5.59
2024-04-19T02:27:39.627Z,5.62
2024-04-19T02:30:26.451Z,5.66
2024-04-19T02:32:53.403Z,5.70
2024-04-19T02:35:23.099Z,5.71
2024-04-19T02:37:49.736Z,5.70
2024-04-19T02:40:16.779Z,5.68
2024-04-19T02:42:43.831Z,5.71
2024-04-19T02:45:11.158Z,5.72
2024-04-19T02:47:38.061Z,5.74
2024-04-19T02:50:05.433Z,5.75
2024-04-19T02:52:34.852Z,5.76
2024-04-19T02:55:03.770Z,5.79
2024-04-19T02:57:32.458Z,5.77
2024-04-19T02:59:59.489Z,5.71
2024-04-19T03:02:26.262Z,5.70
2024-04-19T03:04:53.043Z,5.66
2024-04-19T03:07:19.891Z,5.60
2024-04-19T03:09:50.460Z,5.58
2024-04-19T03:12:17.804Z,5.58
2024-04-19T03:14:47.781Z,5.57
2024-04-19T03:17:14.708Z,5.53
2024-04-19T03:19:44.651Z,5.53
2024-04-19T03:22:11.426Z,5.50
2024-04-19T03:24:38.333Z,5.49
2024-04-19T03:27:08.072Z,5.45
2024-04-19T03:29:55.563Z,5.40
2024-04-19T03:32:24.015Z,5.37
2024-04-19T03:34:51.104Z,5.32
2024-04-19T03:37:17.904Z,5.29
2024-04-19T03:39:46.876Z,5.29
2024-04-19T03:42:20.171Z,5.30
2024-04-19T03:45:05.778Z,5.24
2024-04-19T03:47:34.200Z,5.18
2024-04-19T03:50:01.166Z,5.16
2024-04-19T03:52:27.936Z,5.15
2024-04-19T03:54:56.409Z,5.15
2024-04-19T03:57:26.147Z,5.15
2024-04-19T03:59:52.980Z,5.15
2024-04-19T04:02:19.844Z,5.13
2024-04-19T04:04:56.014Z,5.14
2024-04-19T04:07:22.879Z,5.18
2024-04-19T04:09:50.238Z,5.18
2024-04-19T04:12:17.168Z,5.18
2024-04-19T04:14:46.745Z,5.16
2024-04-19T04:17:14.025Z,5.17
2024-04-19T04:19:40.991Z,5.16
2024-04-19T04:22:07.882Z,5.18
2024-04-19T04:24:34.693Z,5.16
2024-04-19T04:27:02.291Z,5.15
2024-04-19T04:29:30.581Z,5.14
2024-04-19T04:32:00.360Z,5.13
2024-04-19T04:34:27.312Z,5.12
2024-04-19T04:36:54.137Z,5.14
2024-04-19T04:39:21.264Z,5.15
2024-04-19T04:41:48.060Z,5.17
2024-04-19T04:44:16.360Z,5.18
2024-04-19T04:46:43.212Z,5.21
2024-04-19T04:49:12.626Z,5.25
2024-04-19T04:51:39.440Z,5.24
2024-04-19T04:54:06.516Z,5.24
2024-04-19T04:56:33.557Z,5.20
2024-04-19T04:59:00.617Z,5.20
2024-04-19T05:01:27.438Z,5.23
2024-04-19T05:03:54.340Z,5.25
2024-04-19T05:06:23.954Z,5.21
2024-04-19T05:08:50.869Z,5.25
2024-04-19T05:11:17.734Z,5.30
2024-04-19T05:13:44.580Z,5.27
2024-04-19T05:16:11.377Z,5.33
2024-04-19T05:18:38.202Z,5.35
2024-04-19T05:21:05.353Z,5.31
2024-04-19T05:23:35.001Z,5.36
2024-04-19T05:26:03.351Z,5.40
2024-04-19T05:28:30.368Z,5.45
2024-04-19T05:30:58.636Z,5.50
2024-04-19T05:33:25.537Z,5.51
2024-04-19T05:35:52.385Z,5.54
2024-04-19T05:38:19.421Z,5.58
2024-04-19T05:40:48.884Z,5.66
2024-04-19T05:43:16.210Z,5.75
2024-04-19T05:45:43.429Z,5.85
2024-04-19T05:48:10.431Z,5.89
2024-04-19T05:50:37.382Z,5.96
2024-04-19T05:53:04.496Z,5.99
2024-04-19T05:55:31.498Z,5.98
2024-04-19T05:58:01.425Z,6.05
2024-04-19T06:00:28.415Z,6.06
2024-04-19T06:02:55.658Z,6.04
2024-04-19T06:05:22.519Z,6.03
2024-04-19T06:07:49.358Z,6.07
2024-04-19T06:10:16.401Z,6.13
2024-04-19T06:12:43.541Z,6.12
2024-04-19T06:15:12.983Z,6.17
2024-04-19T06:17:39.875Z,6.25
2024-04-19T06:20:07.471Z,6.31
2024-04-19T06:22:34.611Z,6.31
2024-04-19T06:25:01.489Z,6.30
2024-04-19T06:27:28.352Z,6.34
2024-04-19T06:29:55.196Z,6.37
2024-04-19T06:32:24.603Z,6.43
2024-04-19T06:34:51.826Z,6.50
2024-04-19T06:37:18.714Z,6.56
2024-04-19T06:39:54.626Z,6.60
2024-04-19T06:42:29.320Z,6.59
2024-04-19T06:44:56.127Z,6.66
2024-04-19T06:47:25.676Z,6.68
2024-04-19T06:49:52.301Z,6.73
2024-04-19T06:52:19.131Z,6.77
2024-04-19T06:54:46.059Z,6.81
2024-04-19T06:57:13.100Z,6.86
2024-04-19T06:59:41.619Z,6.89
2024-04-19T07:02:08.524Z,6.94
2024-04-19T07:04:38.326Z,7.02
2024-04-19T07:07:05.271Z,7.07
2024-04-19T07:09:32.118Z,7.12
2024-04-19T07:11:59.046Z,7.18
2024-04-19T07:14:26.009Z,7.29
2024-04-19T07:16:52.857Z,7.33
2024-04-19T07:19:19.792Z,7.37
2024-04-19T07:21:49.225Z,7.36
2024-04-19T07:24:16.077Z,7.31
2024-04-19T07:26:42.876Z,7.30
2024-04-19T07:29:09.765Z,7.26
2024-04-19T07:31:36.666Z,7.25
2024-04-19T07:34:03.476Z,7.23
2024-04-19T07:36:30.316Z,7.18
2024-04-19T07:38:59.945Z,7.16
2024-04-19T07:41:27.502Z,7.11
2024-04-19T07:43:59.597Z,7.13
2024-04-19T07:46:28.250Z,7.12
2024-04-19T07:48:55.188Z,7.09
2024-04-19T07:51:22.065Z,7.04
2024-04-19T07:53:48.883Z,7.04
2024-04-19T07:56:18.268Z,7.04
2024-04-19T07:58:45.331Z,7.01
2024-04-19T08:01:12.645Z,6.99
2024-04-19T08:03:40.591Z,7.03
2024-04-19T08:06:08.018Z,7.11
2024-04-19T08:08:35.054Z,7.21
2024-04-19T08:11:03.057Z,7.19
2024-04-19T08:13:32.603Z,7.25
2024-04-19T08:16:00.019Z,7.16
2024-04-19T08:18:26.949Z,7.10
2024-04-19T08:20:53.744Z,7.12
2024-04-19T08:23:20.549Z,7.14
2024-04-19T08:25:47.315Z,7.21
2024-04-19T08:28:14.147Z,7.37
2024-04-19T08:30:43.623Z,7.44
2024-04-19T08:33:10.512Z,7.50
2024-04-19T08:35:41.106Z,7.55
2024-04-19T08:38:08.258Z,7.55
2024-04-19T08:40:41.882Z,7.52
2024-04-19T08:43:12.068Z,7.50
2024-04-19T08:45:39.405Z,7.59
2024-04-19T08:48:09.439Z,7.64
2024-04-19T08:50:37.799Z,7.67
2024-04-19T08:53:15.550Z,7.69
2024-04-19T08:55:44.716Z,7.67
2024-04-19T08:58:13.673Z,7.70
2024-04-19T09:00:41.598Z,7.70
2024-04-19T09:03:12.348Z,7.70
2024-04-19T09:05:39.318Z,7.77
2024-04-19T09:08:07.673Z,7.87
2024-04-19T09:10:34.901Z,7.89
2024-04-19T09:13:02.390Z,7.88
2024-04-19T09:15:30.263Z,7.95
2024-04-19T09:17:57.283Z,8.01
2024-04-19T09:20:26.804Z,7.99
2024-04-19T09:22:54.670Z,7.95
2024-04-19T09:25:21.566Z,7.97
2024-04-19T09:27:49.591Z,8.03
2024-04-19T09:30:17.756Z,8.11
2024-04-19T09:32:46.638Z,8.18
2024-04-19T09:35:13.577Z,8.25
2024-04-19T09:37:45.426Z,8.27
2024-04-19T09:40:12.988Z,8.33
2024-04-19T09:42:41.000Z,8.40
2024-04-19T09:45:10.289Z,8.44
2024-04-19T09:47:40.024Z,8.55
2024-04-19T09:50:12.050Z,8.63
2024-04-19T09:52:43.991Z,8.60
2024-04-19T09:55:18.464Z,8.59
2024-04-19T09:57:47.777Z,8.57
2024-04-19T10:00:18.707Z,8.68
2024-04-19T10:02:45.947Z,8.75
2024-04-19T10:05:13.208Z,8.85
2024-04-19T10:07:43.334Z,8.85
2024-04-19T10:10:10.440Z,8.78
2024-04-19T10:12:41.675Z,8.87
2024-04-19T10:15:11.738Z,8.99
2024-04-19T10:17:39.072Z,9.14
2024-04-19T10:20:07.031Z,9.31
2024-04-19T10:22:33.853Z,9.43
2024-04-19T10:25:03.836Z,9.49
2024-04-19T10:27:33.148Z,9.63
2024-04-19T10:30:00.872Z,9.81
2024-04-19T10:32:29.400Z,10.02
2024-04-19T10:34:56.269Z,10.21
2024-04-19T10:37:23.172Z,10.48
2024-04-19T10:39:50.052Z,10.72
2024-04-19T10:42:22.456Z,10.97
2024-04-19T10:44:50.130Z,11.16
2024-04-19T10:47:17.733Z,11.29
2024-04-19T10:49:45.690Z,11.47
2024-04-19T10:52:12.598Z,11.64
2024-04-19T10:54:39.996Z,11.65
2024-04-19T10:57:06.984Z,11.70
2024-04-19T10:59:36.954Z,11.58
2024-04-19T11:02:04.368Z,11.46
2024-04-19T11:04:31.543Z,11.37
2024-04-19T11:06:59.158Z,11.33
2024-04-19T11:09:26.676Z,11.35
2024-04-19T11:11:53.691Z,11.35
2024-04-19T11:14:23.028Z,11.26
2024-04-19T11:16:52.435Z,11.06
2024-04-19T11:19:19.617Z,10.94
2024-04-19T11:21:47.178Z,10.92
2024-04-19T11:24:14.245Z,11.04
2024-04-19T11:26:41.925Z,11.12
2024-04-19T11:29:11.501Z,11.14
2024-04-19T11:31:40.525Z,11.16
2024-04-19T11:34:10.296Z,11.18
2024-04-19T11:36:37.400Z,11.16
2024-04-19T11:39:04.628Z,11.10
2024-04-19T11:41:31.792Z,11.08
2024-04-19T11:44:00.215Z,11.08
2024-04-19T11:46:29.973Z,11.06
2024-04-19T11:48:57.772Z,10.99
2024-04-19T11:51:27.474Z,10.93
2024-04-19T11:53:54.413Z,10.96
2024-04-19T11:56:21.631Z,10.84
2024-04-19T11:58:53.554Z,10.71
2024-04-19T12:01:20.934Z,10.64
2024-04-19T12:03:48.082Z,10.56
2024-04-19T12:06:15.764Z,10.51
2024-04-19T12:08:45.607Z,10.38
2024-04-19T12:11:12.590Z,10.29
2024-04-19T12:14:32.095Z,10.23
2024-04-19T12:18:56.294Z,10.16
2024-04-19T12:21:24.165Z,10.22
2024-04-19T12:23:54.773Z,10.25
2024-04-19T12:26:23.046Z,10.26
2024-04-19T12:28:54.757Z,10.28
2024-04-19T12:31:24.687Z,10.27
2024-04-19T12:33:52.014Z,10.25
2024-04-19T12:36:18.964Z,10.27
2024-04-19T12:38:45.977Z,10.33
2024-04-19T12:41:15.849Z,10.23
2024-04-19T12:43:42.926Z,10.21
2024-04-19T12:46:09.853Z,10.12
2024-04-19T12:48:37.147Z,10.08
2024-04-19T12:51:04.712Z,10.07
2024-04-19T12:53:31.589Z,10.03
2024-04-19T12:55:59.344Z,9.94
2024-04-19T12:58:29.063Z,9.87
2024-04-19T13:01:01.680Z,9.78
2024-04-19T13:03:28.712Z,9.78
2024-04-19T13:05:56.296Z,9.73
2024-04-19T13:08:23.105Z,9.63
2024-04-19T13:10:49.957Z,9.64
2024-04-19T13:13:17.532Z,9.72
2024-04-19T13:15:47.323Z,9.69
2024-04-19T13:18:14.846Z,9.65
2024-04-19T13:20:41.734Z,9.71
2024-04-19T13:23:09.463Z,9.72
2024-04-19T13:25:36.353Z,9.77
2024-04-19T13:28:03.234Z,9.77
2024-04-19T13:30:30.924Z,9.79
2024-04-19T13:33:00.473Z,9.80
2024-04-19T13:35:27.369Z,9.82
2024-04-19T13:37:54.132Z,9.85
2024-04-19T13:40:21.171Z,9.84
2024-04-19T13:42:48.161Z,9.74
2024-04-19T13:45:15.142Z,9.71
2024-04-19T13:47:42.077Z,9.74
2024-04-19T13:50:11.572Z,9.81
2024-04-19T13:52:38.372Z,9.86
2024-04-19T13:55:07.016Z,9.85
2024-04-19T13:57:34.148Z,9.85
2024-04-19T14:00:01.180Z,9.90
2024-04-19T14:02:28.363Z,9.91
2024-04-19T14:04:55.300Z,9.88
2024-04-19T14:07:25.170Z,9.93
2024-04-19T14:09:52.074Z,9.92
2024-04-19T14:12:18.875Z,9.92
2024-04-19T14:14:45.812Z,9.80
2024-04-19T14:17:12.646Z,9.74
2024-04-19T14:19:39.510Z,9.70
2024-04-19T14:22:06.502Z,9.67
2024-04-19T14:24:35.986Z,9.56
2024-04-19T14:27:02.744Z,9.48
2024-04-19T14:29:29.572Z,9.42
2024-04-19T14:31:56.402Z,9.39
2024-04-19T14:34:23.290Z,9.39
2024-04-19T14:36:50.192Z,9.33
2024-04-19T14:39:17.031Z,9.30
2024-04-19T14:41:47.899Z,9.27
2024-04-19T14:44:14.987Z,9.27
2024-04-19T14:46:41.890Z,9.30
2024-04-19T14:49:08.973Z,9.32
2024-04-19T14:51:35.973Z,9.26
2024-04-19T14:54:02.771Z,9.12
2024-04-19T14:56:29.701Z,8.95
2024-04-19T14:59:07.004Z,8.85
2024-04-19T15:01:41.370Z,8.84
2024-04-19T15:04:09.844Z,8.90
2024-04-19T15:06:40.586Z,8.78
2024-04-19T15:09:08.612Z,8.73
2024-04-19T15:11:36.516Z,8.66
2024-04-19T15:14:06.344Z,8.59
2024-04-19T15:16:33.628Z,8.47
2024-04-19T15:19:00.628Z,8.40
2024-04-19T15:21:28.405Z,8.36
2024-04-19T15:23:55.664Z,8.19
2024-04-19T15:26:22.510Z,8.10
2024-04-19T15:28:49.316Z,8.04
2024-04-19T15:31:20.756Z,8.02
2024-04-19T15:33:47.725Z,7.95
2024-04-19T15:36:14.612Z,7.93
2024-04-19T15:38:43.593Z,7.91
2024-04-19T15:41:12.568Z,7.88
2024-04-19T15:43:39.785Z,7.88
2024-04-19T15:46:06.795Z,7.81
2024-04-19T15:48:36.280Z,7.63
2024-04-19T15:51:06.431Z,7.59
2024-04-19T15:53:33.285Z,7.50
2024-04-19T15:56:00.112Z,7.44
2024-04-19T15:58:29.670Z,7.45
2024-04-19T16:00:56.468Z,7.44
2024-04-19T16:03:23.596Z,7.39
2024-04-19T16:05:53.089Z,7.30
2024-04-19T16:08:20.119Z,7.23
2024-04-19T16:10:46.994Z,7.20
2024-04-19T16:13:13.968Z,7.19
2024-04-19T16:15:42.217Z,7.14
2024-04-19T16:18:09.411Z,7.10
2024-04-19T16:20:37.163Z,7.00
2024-04-19T16:23:06.732Z,7.00
2024-04-19T16:25:33.649Z,6.94
2024-04-19T16:28:00.604Z,6.95
2024-04-19T16:30:27.664Z,6.97
2024-04-19T16:32:57.044Z,7.08
2024-04-19T16:35:24.433Z,7.02
2024-04-19T16:37:51.245Z,7.00
2024-04-19T16:40:20.758Z,6.96
2024-04-19T16:42:47.575Z,6.93
2024-04-19T16:45:14.623Z,6.96
2024-04-19T16:47:42.421Z,6.87
2024-04-19T16:50:09.557Z,6.86
2024-04-19T16:52:36.390Z,6.79
2024-04-19T16:55:03.471Z,6.78
2024-04-19T16:57:32.907Z,6.81
2024-04-19T16:59:59.791Z,6.82
2024-04-19T17:02:26.901Z,6.78
2024-04-19T17:04:56.182Z,6.80
2024-04-19T17:07:23.315Z,6.87
2024-04-19T17:09:50.501Z,6.95
2024-04-19T17:12:17.428Z,7.00
2024-04-19T17:14:46.933Z,7.04
2024-04-19T17:17:13.729Z,7.03
2024-04-19T17:19:40.625Z,7.02
2024-04-19T17:22:07.689Z,7.07
2024-04-19T17:28:26.766Z,6.97
2024-04-19T17:30:57.291Z,6.89
2024-04-19T17:33:24.583Z,6.83
2024-04-19T17:35:52.355Z,6.80
2024-04-19T17:38:19.161Z,6.80
2024-04-19T17:40:48.402Z,6.82
2024-04-19T17:43:15.920Z,6.87
2024-04-19T17:45:43.045Z,6.90
2024-04-19T17:48:14.930Z,6.89
2024-04-19T17:50:41.948Z,6.87
2024-04-19T17:53:08.717Z,6.87
2024-04-19T17:55:35.768Z,6.89
2024-04-19T17:58:02.682Z,6.91
2024-04-19T18:00:29.719Z,6.92
2024-04-19T18:02:56.555Z,6.95
2024-04-19T18:05:26.083Z,6.96
2024-04-19T18:07:52.848Z,6.93
2024-04-19T18:10:22.689Z,6.91
2024-04-19T18:12:49.563Z,6.88
2024-04-19T18:15:16.534Z,6.86
2024-04-19T18:17:43.631Z,6.86
2024-04-19T18:20:10.962Z,6.80
2024-04-19T18:22:40.335Z,6.80
2024-04-19T18:25:08.406Z,6.77
2024-04-19T18:27:36.385Z,6.76
2024-04-19T18:30:03.774Z,6.80
2024-04-19T18:32:30.844Z,6.81
2024-04-19T18:34:59.498Z,6.83
2024-04-19T18:37:27.522Z,6.78
2024-04-19T18:39:58.259Z,6.79
2024-04-19T18:42:25.114Z,6.74
2024-04-19T18:44:52.182Z,6.70
2024-04-19T18:47:20.022Z,6.72
2024-04-19T18:49:47.058Z,6.68
2024-04-19T18:52:14.207Z,6.70
2024-04-19T18:54:41.092Z,6.66
2024-04-19T18:57:11.113Z,6.71
2024-04-19T18:59:37.921Z,6.78
2024-04-19T19:02:05.570Z,6.79
2024-04-19T19:04:36.342Z,6.78
2024-04-19T19:07:03.585Z,6.77
2024-04-19T19:09:30.970Z,6.76
2024-04-19T19:11:57.910Z,6.76
2024-04-19T19:14:31.129Z,6.76
2024-04-19T19:16:59.188Z,6.76
2024-04-19T19:19:27.554Z,6.73
2024-04-19T19:21:54.609Z,6.72
2024-04-19T19:24:21.516Z,6.74
2024-04-19T19:26:49.220Z,6.74
2024-04-19T19:29:22.500Z,6.75
2024-04-19T19:31:52.722Z,6.79
2024-04-19T19:34:19.514Z,6.80
2024-04-19T19:36:48.791Z,6.75
2024-04-19T19:39:15.644Z,6.73
2024-04-19T19:41:42.520Z,6.75
2024-04-19T19:44:11.167Z,6.76
2024-04-19T19:46:37.968Z,6.75
2024-04-19T19:49:07.578Z,6.80
2024-04-19T19:51:34.916Z,6.81
2024-04-19T19:54:03.815Z,6.79
2024-04-19T19:56:30.614Z,6.82
2024-04-19T19:58:57.427Z,6.80
2024-04-19T20:01:42.938Z,6.81
2024-04-19T20:04:31.196Z,6.80
2024-04-19T20:06:58.436Z,6.77
2024-04-19T20:09:25.427Z,6.73
2024-04-19T20:11:53.084Z,6.73
2024-04-19T20:14:19.870Z,6.70
2024-04-19T20:16:46.982Z,6.70
2024-04-19T20:19:16.445Z,6.72
2024-04-19T20:21:43.590Z,6.71
2024-04-19T20:24:10.439Z,6.71
2024-04-19T20:26:37.263Z,6.72
2024-04-19T20:29:04.411Z,6.73
2024-04-19T20:31:31.383Z,6.73
2024-04-19T20:33:58.265Z,6.73
2024-04-19T20:36:27.842Z,6.72
2024-04-19T20:38:54.496Z,6.72
2024-04-19T20:41:21.446Z,6.69
2024-04-19T20:43:48.306Z,6.68
2024-04-19T20:46:15.339Z,6.68
2024-04-19T20:48:42.344Z,6.68
2024-04-19T20:51:09.220Z,6.68
2024-04-19T20:53:38.648Z,6.70
2024-04-19T20:56:08.998Z,6.74
2024-04-19T20:58:37.464Z,6.72
2024-04-19T21:01:06.845Z,6.72
2024-04-19T21:03:33.768Z,6.78
2024-04-19T21:06:00.800Z,6.79
2024-04-19T21:08:27.684Z,6.77
2024-04-19T21:10:57.219Z,6.75
2024-04-19T21:13:23.894Z,6.72
2024-04-19T21:16:09.022Z,6.69
2024-04-19T21:18:42.399Z,6.63
2024-04-19T21:24:41.626Z,6.62
2024-04-19T21:27:11.779Z,6.55
2024-04-19T21:29:38.950Z,6.51
2024-04-19T21:32:06.862Z,6.55
2024-04-19T21:34:33.754Z,6.52
2024-04-19T21:37:00.682Z,6.51
2024-04-19T21:39:27.545Z,6.50
2024-04-19T21:41:54.565Z,6.53
2024-04-19T21:44:23.971Z,6.52
2024-04-19T21:46:51.423Z,6.50
2024-04-19T21:49:18.229Z,6.50
2024-04-19T21:51:45.038Z,6.54
2024-04-19T21:54:11.931Z,6.54
2024-04-19T21:56:38.706Z,6.46
2024-04-19T21:59:05.752Z,6.41
2024-04-19T22:01:35.764Z,6.42
2024-04-19T22:04:02.893Z,6.42
2024-04-19T22:06:29.944Z,6.42
2024-04-19T22:08:57.167Z,6.44
2024-04-19T22:11:23.983Z,6.44
2024-04-19T22:13:52.111Z,6.43
2024-04-19T22:16:18.984Z,6.44
2024-04-19T22:18:48.728Z,6.45
2024-04-19T22:21:16.537Z,6.49
2024-04-19T22:23:43.383Z,6.52
2024-04-19T22:26:10.988Z,6.56
2024-04-19T22:28:38.899Z,6.59
2024-04-19T22:31:07.043Z,6.63
2024-04-19T22:33:34.644Z,6.67
2024-04-19T22:36:09.407Z,6.67
2024-04-19T22:38:37.786Z,6.67
2024-04-19T22:41:05.285Z,6.66
2024-04-19T22:58:21.847Z,6.95
2024-04-19T23:00:48.787Z,6.77
2024-04-19T23:03:15.805Z,6.58
2024-04-19T23:05:42.607Z,6.44
2024-04-19T23:08:10.890Z,6.33
2024-04-19T23:10:37.833Z,6.26
2024-04-19T23:13:06.409Z,6.22
2024-04-19T23:15:35.979Z,6.21
2024-04-19T23:18:02.910Z,6.22
2024-04-19T23:24:52.968Z,6.17
2024-04-19T23:27:19.832Z,6.15
2024-04-19T23:29:46.663Z,6.13
2024-04-19T23:32:16.172Z,6.13
2024-04-19T23:34:42.958Z,6.13
2024-04-19T23:37:09.779Z,6.11
2024-04-19T23:39:36.798Z,6.05
2024-04-19T23:42:03.868Z,5.99
2024-04-19T23:44:30.726Z,5.96
2024-04-19T23:46:57.597Z,5.92
2024-04-19T23:49:27.198Z,5.90
2024-04-19T23:51:54.109Z,5.85
2024-04-19T23:54:20.983Z,5.83
2024-04-19T23:56:47.779Z,5.79
2024-04-19T23:59:14.764Z,5.76
